Time;durP1;ratioP1;P1;durP2;ratioP2;P2;SDS_P1;SDS_P2;PMS_P1;PMS_P2;Temp;Humidity;BMP_temperature;BMP_pressure;BME280_temperature;BME280_humidity;BME280_pressure;Samples;Min_cycle;Max_cycle;Signal;HPM_P1;HPM_P2
2022/03/28 00:00:26;;;;;;;9.75;3.20;;;;;;;8.43;59.24;101029.19;5073470;28;20483;-58
2022/03/28 00:02:52;;;;;;;7.20;3.30;;;;;;;8.45;58.91;101023.94;5074901;28;20040;-58
2022/03/28 00:05:18;;;;;;;9.48;3.60;;;;;;;8.40;59.93;101023.97;5075357;28;20037;-58
2022/03/28 00:07:44;;;;;;;11.07;3.45;;;;;;;8.39;60.19;101016.97;5075347;28;20146;-58
2022/03/28 00:10:10;;;;;;;12.15;3.80;;;;;;;8.38;60.34;101018.75;5073641;28;20395;-59
2022/03/28 00:12:38;;;;;;;10.90;3.85;;;;;;;8.40;60.49;101005.63;5074592;28;20036;-59
2022/03/28 00:15:07;;;;;;;8.85;3.42;;;;;;;8.40;60.56;101008.25;5074566;28;20032;-59
2022/03/28 00:17:33;;;;;;;8.98;3.50;;;;;;;8.39;60.05;101002.13;5075103;28;20113;-59
2022/03/28 00:19:59;;;;;;;10.82;3.83;;;;;;;8.36;60.28;100996.00;5074713;28;20060;-59
2022/03/28 00:22:25;;;;;;;9.38;3.40;;;;;;;8.26;61.60;100999.50;5075193;28;20494;-59
2022/03/28 00:24:50;;;;;;;10.85;3.30;;;;;;;8.32;61.17;100989.03;5074523;28;20041;-59
2022/03/28 00:27:17;;;;;;;9.73;3.88;;;;;;;8.29;61.58;100986.41;5074802;28;20483;-59
2022/03/28 00:29:44;;;;;;;10.00;3.63;;;;;;;8.30;61.36;100975.97;5074291;28;20040;-59
2022/03/28 00:32:10;;;;;;;10.40;3.42;;;;;;;8.23;61.82;100970.75;5074485;28;20033;-59
2022/03/28 00:34:37;;;;;;;10.75;3.80;;;;;;;8.28;61.69;100971.59;5074487;28;20078;-59
2022/03/28 00:37:04;;;;;;;11.70;3.67;;;;;;;8.14;63.22;100975.13;5073091;28;20434;-59
2022/03/28 00:39:30;;;;;;;10.27;3.47;;;;;;;8.26;62.54;100976.84;5074419;28;20033;-59
2022/03/28 00:41:57;;;;;;;9.35;3.60;;;;;;;8.26;62.78;100968.09;5074021;28;20361;-59
2022/03/28 00:44:22;;;;;;;10.63;3.70;;;;;;;8.18;63.33;100972.47;5073279;28;20039;-59
2022/03/28 00:46:48;;;;;;;12.52;3.47;;;;;;;8.25;62.67;100971.59;5069956;28;20045;-59
2022/03/28 00:49:14;;;;;;;13.93;4.03;;;;;;;8.11;63.73;100972.50;5064580;28;20036;-60
2022/03/28 00:51:41;;;;;;;10.23;3.45;;;;;;;8.12;63.55;100961.16;5074375;28;20046;-59
2022/03/28 00:54:07;;;;;;;11.55;3.95;;;;;;;8.02;64.25;100954.22;5073917;28;20028;-59
2022/03/28 00:56:33;;;;;;;8.60;3.08;;;;;;;8.07;63.44;100967.28;5074237;28;20107;-59
2022/03/28 00:58:59;;;;;;;13.75;3.72;;;;;;;8.02;63.88;100959.44;5073371;28;20048;-59
2022/03/28 01:01:26;;;;;;;9.75;3.25;;;;;;;8.01;63.86;100960.31;5072786;28;20361;-59
2022/03/28 01:03:51;;;;;;;12.90;3.08;;;;;;;7.92;64.61;100967.31;5074108;28;20028;-59
2022/03/28 01:06:17;;;;;;;15.40;3.85;;;;;;;7.85;64.59;100961.19;5073641;28;20602;-59
2022/03/28 01:08:43;;;;;;;13.02;3.92;;;;;;;7.80;65.03;100957.72;5074197;28;20491;-59
2022/03/28 01:11:12;;;;;;;13.40;3.55;;;;;;;7.76;65.15;100943.78;5072623;28;20496;-59
2022/03/28 01:13:40;;;;;;;12.75;3.47;;;;;;;7.76;64.94;100950.75;5073622;28;20036;-59
2022/03/28 01:16:07;;;;;;;7.90;3.30;;;;;;;7.68;65.35;100949.91;5073821;28;20495;-59
2022/03/28 01:18:33;;;;;;;14.55;3.78;;;;;;;7.61;66.21;100947.25;5073608;28;20064;-59
2022/03/28 01:20:59;;;;;;;9.05;3.33;;;;;;;7.67;65.42;100935.09;5074029;28;20483;-59
2022/03/28 01:23:25;;;;;;;9.90;3.22;;;;;;;7.65;65.58;100941.16;5073539;28;20081;-59
2022/03/28 01:25:51;;;;;;;9.73;3.60;;;;;;;7.55;66.15;100934.22;5073359;28;20464;-59
2022/03/28 01:28:18;;;;;;;10.20;4.03;;;;;;;7.56;66.13;100928.09;5072260;28;20051;-59
2022/03/28 01:30:44;;;;;;;10.93;3.40;;;;;;;7.53;66.42;100930.72;5071508;28;20029;-59
2022/03/28 01:33:10;;;;;;;8.85;4.15;;;;;;;7.51;66.75;100911.56;5072873;28;20115;-59
2022/03/28 01:35:40;;;;;;;12.55;3.80;;;;;;;7.55;66.62;100915.03;5073739;28;20037;-59
2022/03/28 01:38:09;;;;;;;10.38;3.80;;;;;;;7.44;67.09;100907.19;5071694;28;20028;-59
2022/03/28 01:40:39;;;;;;;8.73;3.45;;;;;;;7.43;67.14;100913.31;5073425;28;20029;-59
2022/03/28 01:43:05;;;;;;;11.95;3.88;;;;;;;7.33;68.05;100904.56;5073200;28;20391;-59
2022/03/28 01:45:30;;;;;;;10.77;3.60;;;;;;;7.39;67.79;100906.31;5073398;28;20115;-59
2022/03/28 01:47:55;;;;;;;12.05;4.47;;;;;;;7.39;68.15;100912.44;5073811;28;20048;-59
2022/03/28 01:50:22;;;;;;;12.82;4.10;;;;;;;7.37;68.45;100905.44;5073249;28;20071;-59
2022/03/28 01:52:47;;;;;;;10.73;3.80;;;;;;;7.26;69.92;100912.41;5073072;28;20034;-59
2022/03/28 01:55:14;;;;;;;15.68;4.30;;;;;;;7.32;69.53;100900.22;5073260;28;20040;-59
2022/03/28 01:57:42;;;;;;;14.30;4.00;;;;;;;7.38;68.74;100899.34;5072306;28;20032;-59
2022/03/28 02:00:10;;;;;;;12.52;4.53;;;;;;;7.27;70.35;100899.34;5073422;28;20047;-59
2022/03/28 02:02:36;;;;;;;12.30;4.05;;;;;;;7.32;70.31;100889.75;5073226;28;20041;-59
2022/03/28 02:05:02;;;;;;;10.32;3.72;;;;;;;7.36;69.81;100888.88;5073227;28;20032;-59
2022/03/28 02:07:27;;;;;;;15.63;4.72;;;;;;;7.30;70.60;100890.63;5073143;28;20039;-59
2022/03/28 02:09:53;;;;;;;9.30;3.67;;;;;;;7.28;70.79;100893.25;5073400;28;20033;-59
2022/03/28 02:12:18;;;;;;;11.07;4.10;;;;;;;7.23;71.52;100886.28;5071947;28;20451;-59
2022/03/28 02:14:44;;;;;;;11.15;3.72;;;;;;;7.28;71.08;100884.53;5072884;28;20036;-59
2022/03/28 02:17:09;;;;;;;12.75;4.18;;;;;;;7.24;71.34;100874.97;5073091;28;20035;-59
2022/03/28 02:19:35;;;;;;;13.82;4.03;;;;;;;7.20;71.73;100876.69;5073314;28;20032;-59
2022/03/28 02:22:01;;;;;;;11.48;3.40;;;;;;;7.25;71.68;100866.22;5073746;28;20059;-59
2022/03/28 02:24:26;;;;;;;11.07;4.25;;;;;;;7.12;73.01;100860.16;5076368;28;20079;-59
2022/03/28 02:26:54;;;;;;;11.48;4.15;;;;;;;7.13;73.31;100864.50;5076799;28;20041;-59
2022/03/28 02:29:20;;;;;;;8.88;3.53;;;;;;;7.21;73.15;100867.09;5076222;28;20640;-59
2022/03/28 02:31:46;;;;;;;9.05;4.13;;;;;;;7.14;73.93;100866.22;5076787;28;20029;-59
2022/03/28 02:34:12;;;;;;;10.80;4.00;;;;;;;7.05;75.09;100861.88;5075358;28;20472;-59
2022/03/28 02:36:39;;;;;;;11.70;4.22;;;;;;;7.18;74.27;100856.66;5076518;28;20029;-59
2022/03/28 02:39:05;;;;;;;8.57;3.80;;;;;;;7.06;76.10;100862.75;5076811;28;20037;-59
2022/03/28 02:41:31;;;;;;;12.57;4.07;;;;;;;7.11;75.14;100866.25;5076652;28;20032;-59
2022/03/28 02:43:56;;;;;;;8.02;3.65;;;;;;;7.04;76.21;100859.28;5076335;28;20437;-59
2022/03/28 02:46:22;;;;;;;12.63;3.88;;;;;;;7.00;76.94;100857.53;5077041;28;20028;-59
2022/03/28 02:48:47;;;;;;;10.90;3.88;;;;;;;7.12;74.98;100853.19;5071864;28;20063;-59
2022/03/28 02:51:13;;;;;;;12.57;3.90;;;;;;;7.08;75.09;100850.56;5059917;28;20032;-59
2022/03/28 02:53:39;;;;;;;11.32;3.67;;;;;;;7.00;76.42;100852.31;5075936;28;20120;-59
2022/03/28 02:56:04;;;;;;;8.60;3.85;;;;;;;6.95;76.81;100843.59;5076615;28;20046;-59
2022/03/28 02:58:30;;;;;;;10.95;3.72;;;;;;;6.90;77.56;100846.19;5076317;28;20048;-59
2022/03/28 03:00:55;;;;;;;12.13;4.45;;;;;;;6.96;76.95;100846.19;5075955;28;20056;-59
2022/03/28 03:03:21;;;;;;;10.00;4.03;;;;;;;6.91;77.73;100845.34;5074915;28;20487;-59
2022/03/28 03:05:49;;;;;;;9.68;4.60;;;;;;;6.90;77.93;100835.72;5075772;28;20407;-58
2022/03/28 03:08:15;;;;;;;10.35;4.40;;;;;;;6.84;78.27;100835.75;5075664;28;20388;-58
2022/03/28 03:10:41;;;;;;;9.73;4.72;;;;;;;6.86;77.94;100834.88;5076590;28;20063;-59
2022/03/28 03:13:07;;;;;;;11.23;4.35;;;;;;;6.83;78.73;100824.44;5074433;28;20079;-58
2022/03/28 03:15:33;;;;;;;10.73;4.30;;;;;;;6.84;78.70;100831.38;5075803;28;20106;-59
2022/03/28 03:17:58;;;;;;;9.75;4.00;;;;;;;6.90;78.15;100825.28;5074469;28;20495;-59
2022/03/28 03:20:24;;;;;;;11.93;3.78;;;;;;;6.86;78.73;100820.94;5074278;28;20533;-59
2022/03/28 03:22:49;;;;;;;10.35;4.40;;;;;;;6.73;80.88;100824.41;5073229;28;20468;-59
2022/03/28 03:25:15;;;;;;;11.43;4.07;;;;;;;6.81;79.67;100814.84;5074790;28;20059;-59
2022/03/28 03:27:43;;;;;;;7.47;3.42;;;;;;;6.81;79.19;100813.09;5074619;28;20531;-59
2022/03/28 03:30:10;;;;;;;9.20;4.10;;;;;;;6.77;80.23;100810.50;5074319;28;20119;-58
2022/03/28 03:32:36;;;;;;;8.30;4.07;;;;;;;6.74;80.71;100808.72;5075186;28;20043;-59
2022/03/28 03:35:02;;;;;;;10.23;3.95;;;;;;;6.69;82.04;100807.00;5074160;28;20391;-59
2022/03/28 03:37:28;;;;;;;14.45;4.93;;;;;;;6.78;80.59;100801.78;5075500;28;20040;-59
2022/03/28 03:39:54;;;;;;;12.80;4.35;;;;;;;6.76;80.89;100801.78;5075782;28;20475;-59
2022/03/28 03:42:19;;;;;;;9.05;3.85;;;;;;;6.80;80.30;100805.28;5075603;28;20422;-58
2022/03/28 03:44:44;;;;;;;11.15;3.78;;;;;;;6.71;81.77;100794.81;5075080;28;20029;-58
2022/03/28 03:47:10;;;;;;;13.15;4.22;;;;;;;6.69;82.61;100800.03;5075627;28;20044;-58
2022/03/28 03:49:35;;;;;;;11.07;4.28;;;;;;;6.68;82.76;100781.75;5073310;28;20536;-58
2022/03/28 03:52:00;;;;;;;13.95;3.53;;;;;;;6.77;81.54;100787.84;5074376;28;20036;-57
2022/03/28 03:54:28;;;;;;;11.00;4.13;;;;;;;6.60;84.59;100794.81;5073759;28;20472;-58
2022/03/28 03:56:53;;;;;;;10.95;3.85;;;;;;;6.69;83.37;100778.28;5075204;28;20175;-57
2022/03/28 03:59:19;;;;;;;8.57;3.72;;;;;;;6.70;83.25;100780.00;5074316;28;20140;-57
2022/03/28 04:01:44;;;;;;;12.00;3.97;;;;;;;6.68;83.11;100769.56;5074982;28;20043;-58
2022/03/28 04:04:12;;;;;;;11.45;3.90;;;;;;;6.75;82.31;100775.69;5075081;28;20037;-58
2022/03/28 04:06:38;;;;;;;9.38;3.88;;;;;;;6.71;82.86;100776.56;5075659;28;20387;-57
2022/03/28 04:09:04;;;;;;;8.73;3.47;;;;;;;6.76;82.38;100780.91;5075316;28;20037;-58
2022/03/28 04:11:29;;;;;;;6.97;3.70;;;;;;;6.75;82.35;100767.84;5074159;28;20379;-58
2022/03/28 04:13:55;;;;;;;12.05;5.05;;;;;;;6.50;85.69;100773.03;5074786;28;20468;-58
2022/03/28 04:16:20;;;;;;;10.23;4.50;;;;;;;6.64;84.10;100765.22;5074635;28;20042;-58
2022/03/28 04:18:45;;;;;;;11.82;7.15;;;;;;;6.64;84.11;100768.69;5074911;28;20033;-58
2022/03/28 04:21:11;;;;;;;12.82;5.30;;;;;;;6.64;84.00;100760.88;5075234;28;20483;-59
2022/03/28 04:23:36;;;;;;;14.88;8.57;;;;;;;6.57;85.16;100759.09;5074460;28;20033;-59
2022/03/28 04:26:02;;;;;;;16.50;8.35;;;;;;;6.58;84.99;100755.66;5073593;28;20032;-59
2022/03/28 04:28:27;;;;;;;14.95;9.00;;;;;;;6.54;85.97;100753.91;5073185;28;20037;-60
2022/03/28 04:30:52;;;;;;;12.63;5.18;;;;;;;6.53;85.66;100752.16;5074162;28;20075;-59
2022/03/28 04:33:19;;;;;;;10.15;4.65;;;;;;;6.52;86.15;100750.41;5073177;28;20476;-59
2022/03/28 04:35:44;;;;;;;11.32;4.85;;;;;;;6.57;85.79;100747.81;5073683;28;20036;-58
2022/03/28 04:38:10;;;;;;;19.48;11.45;;;;;;;6.53;86.08;100746.06;5074698;28;20036;-58
2022/03/28 04:40:36;;;;;;;16.02;9.75;;;;;;;6.53;85.91;100746.94;5074515;28;20048;-58
2022/03/28 04:43:02;;;;;;;16.00;9.40;;;;;;;6.54;85.93;100748.69;5069483;28;20036;-58
2022/03/28 04:45:28;;;;;;;12.25;6.32;;;;;;;6.53;85.70;100739.09;5055908;28;20106;-59
2022/03/28 04:47:54;;;;;;;13.68;4.88;;;;;;;6.52;86.14;100739.97;5072167;28;20414;-58
2022/03/28 04:50:20;;;;;;;10.75;4.55;;;;;;;6.49;86.83;100737.34;5073830;28;20060;-58
2022/03/28 04:52:45;;;;;;;10.32;4.80;;;;;;;6.57;85.67;100755.63;5073347;28;20123;-58
2022/03/28 04:55:12;;;;;;;9.70;4.40;;;;;;;6.45;87.39;100761.72;5073719;28;20452;-58
2022/03/28 04:57:38;;;;;;;10.13;5.18;;;;;;;6.50;86.85;100744.31;5073265;28;20060;-58
2022/03/28 05:00:08;;;;;;;11.60;4.80;;;;;;;6.63;85.40;100739.97;5073084;28;20072;-58
2022/03/28 05:02:34;;;;;;;9.15;4.38;;;;;;;6.61;85.57;100739.97;5073227;28;20032;-58
2022/03/28 05:04:59;;;;;;;13.85;4.80;;;;;;;6.62;85.30;100738.22;5073889;28;20115;-58
2022/03/28 05:07:27;;;;;;;11.85;4.55;;;;;;;6.61;85.38;100729.53;5073590;28;20119;-58
2022/03/28 05:09:53;;;;;;;11.30;4.30;;;;;;;6.61;85.33;100732.13;5073458;28;20024;-59
2022/03/28 05:12:22;;;;;;;10.00;4.88;;;;;;;6.80;84.03;100742.59;5073706;28;20029;-58
2022/03/28 05:14:48;;;;;;;11.95;5.10;;;;;;;6.81;83.88;100736.47;5073536;28;20050;-59
2022/03/28 05:17:15;;;;;;;12.25;7.00;;;;;;;6.70;85.32;100738.22;5073219;28;20542;-58
2022/03/28 05:19:42;;;;;;;13.60;7.07;;;;;;;6.89;83.11;100734.72;5073628;28;20039;-58
2022/03/28 05:22:07;;;;;;;14.43;6.05;;;;;;;6.88;83.26;100723.41;5073723;28;20060;-58
2022/03/28 05:24:32;;;;;;;13.57;7.10;;;;;;;6.86;82.95;100721.66;5073276;28;20116;-58
2022/03/28 05:26:58;;;;;;;16.23;10.30;;;;;;;6.77;84.47;100724.31;5072977;28;20036;-59
2022/03/28 05:29:24;;;;;;;10.18;4.88;;;;;;;6.85;83.66;100730.38;5072652;28;20044;-59
2022/03/28 05:31:50;;;;;;;11.27;5.18;;;;;;;6.90;83.43;100731.25;5072083;28;20503;-59
2022/03/28 05:34:15;;;;;;;13.68;5.60;;;;;;;6.89;83.38;100733.00;5072200;28;20044;-59
2022/03/28 05:36:42;;;;;;;11.88;5.50;;;;;;;7.08;82.17;100723.38;5072393;28;20127;-58
2022/03/28 05:39:08;;;;;;;9.45;5.00;;;;;;;7.05;82.36;100702.50;5073321;28;20392;-59
2022/03/28 05:41:34;;;;;;;12.35;5.82;;;;;;;7.11;82.02;100720.78;5073524;28;20032;-59
2022/03/28 05:44:00;;;;;;;10.73;5.20;;;;;;;7.18;81.48;100716.38;5073668;28;20418;-58
2022/03/28 05:46:25;;;;;;;9.63;5.22;;;;;;;7.07;82.51;100715.56;5073172;28;20433;-59
2022/03/28 05:48:51;;;;;;;10.38;4.95;;;;;;;7.25;81.05;100722.47;5073510;28;20044;-59
2022/03/28 05:51:16;;;;;;;13.02;5.28;;;;;;;7.33;80.27;100711.13;5073499;28;20395;-59
2022/03/28 05:53:41;;;;;;;10.07;4.90;;;;;;;7.45;79.43;100719.81;5073807;28;20122;-59
2022/03/28 05:56:07;;;;;;;9.95;4.63;;;;;;;7.46;79.34;100705.84;5073763;28;20070;-58
2022/03/28 05:58:33;;;;;;;8.10;4.43;;;;;;;7.50;78.84;100708.47;5079766;28;20113;-58
2022/03/28 06:01:00;;;;;;;9.52;4.60;;;;;;;7.51;78.60;100715.44;5080140;28;20460;-58
2022/03/28 06:03:26;;;;;;;12.80;4.88;;;;;;;7.62;78.24;100711.03;5079931;28;20047;-59
2022/03/28 06:05:51;;;;;;;10.20;5.07;;;;;;;7.62;78.27;100702.28;5078835;28;20032;-59
2022/03/28 06:08:18;;;;;;;10.35;4.82;;;;;;;7.69;78.03;100704.00;5078434;28;20037;-59
2022/03/28 06:10:44;;;;;;;11.20;5.25;;;;;;;7.68;78.24;100697.06;5079372;28;20459;-59
2022/03/28 06:13:09;;;;;;;12.35;4.97;;;;;;;7.83;77.28;100696.13;5080148;28;20060;-58
2022/03/28 06:15:37;;;;;;;11.07;5.70;;;;;;;7.71;78.17;100697.03;5078179;28;20434;-60
2022/03/28 06:18:06;;;;;;;12.18;5.60;;;;;;;7.87;77.14;100700.44;5077017;28;20054;-57
2022/03/28 06:20:35;;;;;;;11.88;4.65;;;;;;;8.07;76.07;100698.59;5079381;28;20089;-58
2022/03/28 06:23:02;;;;;;;9.38;4.90;;;;;;;8.19;75.10;100704.63;5074078;28;20055;-58
2022/03/28 06:25:28;;;;;;;8.27;4.95;;;;;;;8.19;75.37;100696.75;5087088;28;20042;-59
2022/03/28 06:27:54;;;;;;;9.20;4.65;;;;;;;8.41;74.13;100698.38;5084269;28;20387;-58
2022/03/28 06:30:19;;;;;;;13.48;5.20;;;;;;;8.39;73.97;100692.28;5091962;28;20036;-59
2022/03/28 06:32:45;;;;;;;11.20;5.18;;;;;;;8.26;74.22;100711.53;5099059;28;20038;-59
2022/03/28 06:35:11;;;;;;;10.25;5.15;;;;;;;8.52;73.15;100703.53;5081777;28;20063;-59
2022/03/28 06:37:36;;;;;;;9.93;4.97;;;;;;;8.42;73.51;100691.38;5085236;28;20028;-59
2022/03/28 06:40:04;;;;;;;9.30;5.00;;;;;;;8.53;72.77;100690.41;5085128;28;20033;-59
2022/03/28 06:42:31;;;;;;;10.02;5.20;;;;;;;8.48;72.89;100689.59;5079237;28;20086;-58
2022/03/28 06:44:57;;;;;;;12.52;5.47;;;;;;;8.62;72.38;100679.88;5079595;28;20478;-59
2022/03/28 06:47:22;;;;;;;11.55;5.55;;;;;;;8.70;71.53;100685.03;5078820;28;20120;-59
2022/03/28 06:49:47;;;;;;;12.00;5.03;;;;;;;8.91;70.76;100683.97;5079310;28;20063;-59
2022/03/28 06:52:13;;;;;;;8.95;5.32;;;;;;;8.63;71.28;100665.03;5079354;28;20029;-58
2022/03/28 06:54:38;;;;;;;10.60;5.30;;;;;;;8.93;70.56;100673.44;5071900;28;20051;-58
2022/03/28 06:57:04;;;;;;;9.77;5.90;;;;;;;8.97;70.21;100656.81;5075533;28;20047;-58
2022/03/28 06:59:29;;;;;;;9.02;5.25;;;;;;;9.13;69.55;100638.28;5078849;28;20426;-59
2022/03/28 07:01:57;;;;;;;9.80;5.25;;;;;;;9.22;69.03;100633.84;5073946;28;20036;-58
2022/03/28 07:04:23;;;;;;;9.23;5.90;;;;;;;9.21;68.75;100659.16;5074215;28;20555;-58
2022/03/28 07:06:49;;;;;;;9.23;5.00;;;;;;;9.37;67.75;100647.63;5077942;28;20499;-58
2022/03/28 07:09:14;;;;;;;12.45;7.18;;;;;;;9.42;67.81;100638.84;5077022;28;20032;-58
2022/03/28 07:11:40;;;;;;;9.02;5.25;;;;;;;9.58;67.33;100642.97;5076187;28;20055;-59
2022/03/28 07:14:05;;;;;;;9.20;4.80;;;;;;;9.74;66.73;100631.38;5070510;28;20097;-58
2022/03/28 07:16:31;;;;;;;17.92;10.57;;;;;;;9.72;66.56;100642.78;5075521;28;20123;-58
2022/03/28 07:18:56;;;;;;;10.68;5.45;;;;;;;9.86;65.91;100625.09;5074430;28;20036;-58
2022/03/28 07:21:22;;;;;;;10.70;5.38;;;;;;;9.99;65.25;100620.53;5071534;28;20036;-59
2022/03/28 07:23:48;;;;;;;11.77;4.93;;;;;;;9.99;65.02;100608.25;5075113;28;20460;-58
2022/03/28 07:26:14;;;;;;;9.43;5.72;;;;;;;10.00;64.30;100604.75;5074921;28;20032;-58
2022/03/28 07:28:40;;;;;;;8.32;5.47;;;;;;;10.05;64.54;100613.44;5062738;28;20064;-58
2022/03/28 07:31:09;;;;;;;9.52;5.47;;;;;;;10.19;63.39;100618.44;5073487;28;20106;-58
2022/03/28 07:33:36;;;;;;;10.07;4.68;;;;;;;10.17;63.52;100629.84;5074547;28;20108;-58
2022/03/28 07:36:03;;;;;;;9.00;4.97;;;;;;;10.18;63.33;100629.84;5074095;28;20060;-58
2022/03/28 07:38:28;;;;;;;11.15;5.18;;;;;;;10.15;63.24;100608.03;5061691;28;20082;-59
2022/03/28 07:40:53;;;;;;;15.10;5.72;;;;;;;10.21;63.15;100600.88;5069493;28;20032;-59
2022/03/28 07:43:19;;;;;;;9.20;4.93;;;;;;;10.36;62.33;100597.19;5068969;28;20033;-60
2022/03/28 07:45:44;;;;;;;10.43;5.20;;;;;;;10.44;62.04;100604.94;5070576;28;20395;-59
2022/03/28 07:48:10;;;;;;;8.45;4.70;;;;;;;10.70;61.30;100607.09;5073788;28;20033;-59
2022/03/28 07:50:35;;;;;;;12.23;5.10;;;;;;;10.69;60.91;100606.25;5074967;28;20040;-59
2022/03/28 07:53:01;;;;;;;9.10;4.95;;;;;;;10.72;60.48;100613.19;5075142;28;20151;-59
2022/03/28 07:55:28;;;;;;;8.57;5.00;;;;;;;10.93;60.15;100594.41;5074620;28;20047;-58
2022/03/28 07:57:53;;;;;;;7.03;4.32;;;;;;;11.08;59.79;100593.19;5072773;28;20527;-58
2022/03/28 08:00:19;;;;;;;9.25;4.82;;;;;;;11.16;59.80;100590.41;5075046;28;20112;-59
2022/03/28 08:02:45;;;;;;;9.07;4.35;;;;;;;11.18;59.71;100586.00;5074957;28;20365;-59
2022/03/28 08:05:12;;;;;;;7.22;4.70;;;;;;;11.40;59.32;100584.63;5074706;28;20052;-58
2022/03/28 08:07:38;;;;;;;7.03;4.30;;;;;;;11.38;59.14;100591.72;5074655;28;20255;-58
2022/03/28 08:10:05;;;;;;;8.07;4.70;;;;;;;11.32;59.03;100583.94;5072370;28;20583;-59
2022/03/28 08:12:31;;;;;;;6.70;4.28;;;;;;;11.56;58.36;100596.53;5073988;28;20028;-60
2022/03/28 08:14:56;;;;;;;10.45;4.40;;;;;;;11.57;57.95;100593.03;5056406;28;20050;-59
2022/03/28 08:17:22;;;;;;;14.75;8.38;;;;;;;11.73;57.75;100580.41;5073317;28;20071;-59
2022/03/28 08:19:47;;;;;;;9.25;4.40;;;;;;;11.63;57.25;100580.63;5073607;28;20032;-59
2022/03/28 08:22:14;;;;;;;8.95;3.60;;;;;;;11.48;57.30;100598.47;5074377;28;21819;-58
2022/03/28 08:24:40;;;;;;;8.00;3.42;;;;;;;11.62;57.16;100577.13;5073658;28;20025;-59
2022/03/28 08:27:06;;;;;;;9.70;5.90;;;;;;;11.91;56.23;100570.34;5074342;28;20106;-58
2022/03/28 08:29:32;;;;;;;4.72;3.10;;;;;;;11.78;56.43;100582.91;5074754;28;20037;-59
2022/03/28 08:32:04;;;;;;;8.40;3.17;;;;;;;11.90;55.76;100564.22;5073595;28;20119;-59
2022/03/28 08:34:30;;;;;;;4.73;3.10;;;;;;;12.21;55.66;100574.00;5073935;28;20098;-59
2022/03/28 08:36:56;;;;;;;6.43;3.00;;;;;;;12.27;55.25;100553.63;5073983;28;20032;-58
2022/03/28 08:39:22;;;;;;;5.55;3.05;;;;;;;12.42;54.93;100562.91;5073231;28;20041;-59
2022/03/28 08:41:48;;;;;;;4.55;2.90;;;;;;;12.35;54.98;100561.34;5073768;28;20040;-59
2022/03/28 08:44:15;;;;;;;6.45;2.90;;;;;;;12.54;54.62;100551.19;5073501;28;20115;-58
2022/03/28 08:46:43;;;;;;;4.93;2.97;;;;;;;12.39;53.97;100557.72;5073611;28;20036;-58
2022/03/28 08:49:09;;;;;;;5.68;2.60;;;;;;;12.28;53.75;100549.22;5073551;28;20036;-59
2022/03/28 08:51:34;;;;;;;5.65;2.80;;;;;;;12.42;53.66;100541.84;5074125;28;20032;-59
2022/03/28 08:54:00;;;;;;;5.63;2.70;;;;;;;12.52;53.42;100539.81;5073320;28;20086;-59
2022/03/28 08:56:26;;;;;;;7.50;2.75;;;;;;;12.37;53.10;100551.63;5072227;28;20033;-59
2022/03/28 08:58:51;;;;;;;7.80;2.60;;;;;;;12.50;53.38;100546.91;5071567;28;20048;-59
2022/03/28 09:01:20;;;;;;;5.93;2.80;;;;;;;12.47;53.18;100531.16;5073363;28;20028;-58
2022/03/28 09:03:47;;;;;;;8.25;3.67;;;;;;;12.61;53.07;100546.59;5073647;28;20035;-58
2022/03/28 09:06:30;;;;;;;8.98;3.20;;;;;;;12.66;52.61;100540.31;5073321;28;20480;-58
2022/03/28 09:09:19;;;;;;;7.28;2.88;;;;;;;12.83;52.62;100543.31;5072885;28;20043;-58
2022/03/28 09:11:47;;;;;;;6.32;2.63;;;;;;;12.75;52.44;100533.91;5073171;28;20082;-58
2022/03/28 09:14:24;;;;;;;5.00;2.50;;;;;;;12.96;52.03;100528.00;5073218;28;20028;-58
2022/03/28 09:17:04;;;;;;;4.72;2.38;;;;;;;13.05;51.45;100533.03;5069651;28;20040;-58
2022/03/28 09:20:02;;;;;;;7.53;2.75;;;;;;;12.93;51.31;100549.22;5072486;28;20134;-58
2022/03/28 09:22:32;;;;;;;8.55;2.50;;;;;;;12.85;51.52;100529.22;5073708;28;20050;-58
2022/03/28 09:25:07;;;;;;;3.88;2.40;;;;;;;12.73;51.75;100523.41;5073232;28;20028;-58
2022/03/28 09:27:39;;;;;;;6.50;2.80;;;;;;;13.05;51.25;100529.53;5073560;28;20043;-58
2022/03/28 09:30:11;;;;;;;5.65;2.45;;;;;;;13.04;50.82;100514.59;5073565;28;20025;-59
2022/03/28 09:32:39;;;;;;;7.63;2.65;;;;;;;13.12;51.02;100517.88;5072727;28;20063;-59
2022/03/28 09:35:07;;;;;;;3.95;2.38;;;;;;;13.16;50.70;100539.75;5073606;28;20043;-58
2022/03/28 09:37:51;;;;;;;4.70;2.90;;;;;;;13.10;50.70;100521.47;5073172;28;20035;-58
2022/03/28 09:40:46;;;;;;;6.60;2.38;;;;;;;13.43;49.92;100504.63;5073393;28;20443;-58
2022/03/28 09:43:30;;;;;;;5.15;2.20;;;;;;;13.32;49.94;100506.75;5073341;28;20029;-58
2022/03/28 09:45:58;;;;;;;5.70;2.42;;;;;;;13.50;49.88;100519.38;5073253;28;20035;-58
2022/03/28 09:48:26;;;;;;;8.77;2.50;;;;;;;13.60;49.62;100513.78;5073375;28;20032;-59
2022/03/28 09:51:03;;;;;;;6.53;2.75;;;;;;;13.55;49.23;100506.88;5073208;28;20071;-58
2022/03/28 09:53:38;;;;;;;5.65;2.05;;;;;;;13.76;49.21;100515.03;5072548;28;20029;-58
2022/03/28 09:56:09;;;;;;;7.75;2.40;;;;;;;13.55;49.47;100491.03;5073243;28;20142;-58
2022/03/28 09:58:36;;;;;;;3.47;1.92;;;;;;;13.71;49.30;100487.91;5072879;28;20056;-58
2022/03/28 10:01:05;;;;;;;3.45;1.90;;;;;;;13.78;49.28;100492.94;5073360;28;20086;-58
2022/03/28 10:03:33;;;;;;;6.28;2.03;;;;;;;13.82;49.16;100488.44;5073084;28;20033;-58
2022/03/28 10:06:05;;;;;;;4.38;1.92;;;;;;;13.89;48.50;100482.03;5072947;28;20460;-59
2022/03/28 10:08:31;;;;;;;5.65;1.90;;;;;;;14.07;48.47;100495.53;5072891;28;20032;-58
2022/03/28 10:10:58;;;;;;;4.75;1.98;;;;;;;14.21;48.46;100485.34;5072956;28;20032;-58
2022/03/28 10:13:24;;;;;;;3.03;1.67;;;;;;;14.34;48.29;100484.00;5073020;28;20043;-58
2022/03/28 10:15:50;;;;;;;4.63;1.90;;;;;;;14.35;47.82;100477.78;5072895;28;20028;-58
2022/03/28 10:18:16;;;;;;;3.80;1.75;;;;;;;14.29;47.63;100485.94;5072786;28;20479;-58
2022/03/28 10:20:45;;;;;;;3.05;1.38;;;;;;;14.20;47.44;100484.50;5072770;28;20028;-58
2022/03/28 10:23:14;;;;;;;4.35;1.55;;;;;;;14.23;47.35;100483.50;5072968;28;20387;-57
2022/03/28 10:25:41;;;;;;;3.75;2.00;;;;;;;14.36;46.72;100479.50;5072708;28;20473;-58
2022/03/28 10:28:09;;;;;;;5.07;1.95;;;;;;;14.35;46.67;100471.63;5070550;28;20064;-58
2022/03/28 10:30:35;;;;;;;2.95;1.90;;;;;;;14.28;46.92;100485.09;5071138;28;20067;-58
2022/03/28 10:33:11;;;;;;;5.97;2.88;;;;;;;14.35;46.81;100475.13;5072103;28;20119;-57
2022/03/28 10:35:37;;;;;;;7.57;2.78;;;;;;;14.44;47.19;100466.91;5070993;28;20039;-57
2022/03/28 10:38:17;;;;;;;4.28;2.17;;;;;;;14.48;47.22;100471.16;5071809;28;20074;-57
2022/03/28 10:40:56;;;;;;;6.65;2.00;;;;;;;14.49;47.02;100464.97;5072345;28;20468;-58
2022/03/28 10:43:25;;;;;;;4.05;2.10;;;;;;;14.57;46.67;100474.41;5073777;28;20025;-58
2022/03/28 10:46:01;;;;;;;7.15;2.38;;;;;;;14.76;46.48;100463.09;5076203;28;20032;-58
2022/03/28 10:48:46;;;;;;;4.45;2.20;;;;;;;14.71;46.32;100461.53;5076095;28;20052;-58
2022/03/28 10:51:20;;;;;;;5.28;2.28;;;;;;;14.89;46.40;100455.56;5076229;28;20114;-58
2022/03/28 10:53:51;;;;;;;5.95;1.80;;;;;;;14.86;46.14;100449.50;5076515;28;20404;-57
2022/03/28 10:56:20;;;;;;;3.83;2.03;;;;;;;14.83;45.67;100446.97;5076100;28;20028;-58
2022/03/28 10:58:49;;;;;;;4.80;1.85;;;;;;;14.72;45.72;100445.63;5075832;28;20048;-58
2022/03/28 11:01:29;;;;;;;3.38;1.65;;;;;;;14.71;45.58;100445.66;5075933;28;20032;-57
2022/03/28 11:04:15;;;;;;;8.80;2.05;;;;;;;14.59;46.08;100438.19;5075997;28;20035;-58
2022/03/28 11:06:52;;;;;;;4.55;1.92;;;;;;;14.82;45.81;100421.47;5074658;28;20040;-59
2022/03/28 11:09:34;;;;;;;13.43;2.58;;;;;;;14.81;45.35;100425.03;5073545;28;20037;-58
2022/03/28 11:12:01;;;;;;;7.28;2.33;;;;;;;14.71;45.64;100416.56;5075912;28;20046;-58
2022/03/28 11:14:42;;;;;;;3.90;1.75;;;;;;;14.70;45.47;100414.84;5075787;28;20476;-59
2022/03/28 11:17:17;;;;;;;4.93;1.83;;;;;;;14.94;45.10;100421.84;5061461;28;20024;-57
2022/03/28 11:20:07;;;;;;;10.73;2.13;;;;;;;14.83;45.12;100421.38;5075656;28;20028;-58
2022/03/28 11:22:54;;;;;;;5.47;2.20;;;;;;;14.78;45.75;100405.69;5065083;28;20039;-59
2022/03/28 11:25:30;;;;;;;4.53;2.13;;;;;;;15.00;45.46;100387.22;5068487;28;20044;-58
2022/03/28 11:28:07;;;;;;;7.25;2.38;;;;;;;15.13;45.09;100402.59;5075441;28;20017;-59